sensor_id;sensor_type;location;lat;lon;timestamp;pressure;altitude;pressure_sealevel;temperature;humidity
39265;BME280;42646;51.910;7.724;2022-10-16T00:01:33;100461.44;;;12.70;100.00
39265;BME280;42646;51.910;7.724;2022-10-16T00:04:01;100455.28;;;12.69;100.00
39265;BME280;42646;51.910;7.724;2022-10-16T00:06:30;100462.41;;;12.69;100.00
39265;BME280;42646;51.910;7.724;2022-10-16T00:08:58;100469.75;;;12.67;100.00
39265;BME280;42646;51.910;7.724;2022-10-16T00:11:28;100467.94;;;12.67;100.00
39265;BME280;42646;51.910;7.724;2022-10-16T00:13:59;100466.41;;;12.65;100.00
39265;BME280;42646;51.910;7.724;2022-10-16T00:16:28;100463.75;;;12.65;100.00
39265;BME280;42646;51.910;7.724;2022-10-16T00:18:56;100461.91;;;12.65;100.00
39265;BME280;42646;51.910;7.724;2022-10-16T00:21:25;100462.75;;;12.66;100.00
39265;BME280;42646;51.910;7.724;2022-10-16T00:23:55;100464.59;;;12.65;100.00
39265;BME280;42646;51.910;7.724;2022-10-16T00:26:23;100473.59;;;12.64;100.00
39265;BME280;42646;51.910;7.724;2022-10-16T00:28:51;100469.25;;;12.63;100.00
39265;BME280;42646;51.910;7.724;2022-10-16T00:31:22;100465.72;;;12.63;100.00
39265;BME280;42646;51.910;7.724;2022-10-16T00:33:50;100465.88;;;12.61;100.00
39265;BME280;42646;51.910;7.724;2022-10-16T00:36:20;100471.38;;;12.60;100.00
39265;BME280;42646;51.910;7.724;2022-10-16T00:38:50;100468.88;;;12.58;100.00
39265;BME280;42646;51.910;7.724;2022-10-16T00:41:19;100468.88;;;12.58;100.00
39265;BME280;42646;51.910;7.724;2022-10-16T00:43:50;100474.34;;;12.56;100.00
39265;BME280;42646;51.910;7.724;2022-10-16T00:46:22;100468.19;;;12.56;100.00
39265;BME280;42646;51.910;7.724;2022-10-16T00:48:56;100476.34;;;12.54;100.00
39265;BME280;42646;51.910;7.724;2022-10-16T00:51:28;100472.84;;;12.54;100.00
39265;BME280;42646;51.910;7.724;2022-10-16T00:53:58;100477.50;;;12.52;100.00
39265;BME280;42646;51.910;7.724;2022-10-16T00:56:26;100481.13;;;12.51;100.00
39265;BME280;42646;51.910;7.724;2022-10-16T00:58:54;100482.13;;;12.50;100.00
39265;BME280;42646;51.910;7.724;2022-10-16T01:01:23;100480.31;;;12.50;100.00
39265;BME280;42646;51.910;7.724;2022-10-16T01:03:51;100479.47;;;12.50;100.00
39265;BME280;42646;51.910;7.724;2022-10-16T01:06:23;100475.13;;;12.49;100.00
39265;BME280;42646;51.910;7.724;2022-10-16T01:09:00;100478.63;;;12.49;100.00
39265;BME280;42646;51.910;7.724;2022-10-16T01:11:34;100476.28;;;12.46;100.00
39265;BME280;42646;51.910;7.724;2022-10-16T01:14:11;100469.28;;;12.45;100.00
39265;BME280;42646;51.910;7.724;2022-10-16T01:16:49;100475.75;;;12.43;100.00
39265;BME280;42646;51.910;7.724;2022-10-16T01:19:30;100484.75;;;12.42;100.00
39265;BME280;42646;51.910;7.724;2022-10-16T01:22:03;100482.25;;;12.40;100.00
39265;BME280;42646;51.910;7.724;2022-10-16T01:24:37;100485.91;;;12.39;100.00
39265;BME280;42646;51.910;7.724;2022-10-16T01:27:09;100479.88;;;12.37;100.00
39265;BME280;42646;51.910;7.724;2022-10-16T01:29:40;100475.53;;;12.36;100.00
39265;BME280;42646;51.910;7.724;2022-10-16T01:32:15;100480.88;;;12.36;100.00
39265;BME280;42646;51.910;7.724;2022-10-16T01:34:49;100470.38;;;12.35;100.00
39265;BME280;42646;51.910;7.724;2022-10-16T01:37:23;100481.16;;;12.33;100.00
39265;BME280;42646;51.910;7.724;2022-10-16T01:39:58;100482.16;;;12.32;100.00
39265;BME280;42646;51.910;7.724;2022-10-16T01:42:31;100478.81;;;12.30;100.00
39265;BME280;42646;51.910;7.724;2022-10-16T01:45:02;100474.47;;;12.29;100.00
39265;BME280;42646;51.910;7.724;2022-10-16T01:47:34;100477.31;;;12.27;100.00
39265;BME280;42646;51.910;7.724;2022-10-16T01:50:04;100480.09;;;12.26;100.00
39265;BME280;42646;51.910;7.724;2022-10-16T01:52:35;100475.78;;;12.25;100.00
39265;BME280;42646;51.910;7.724;2022-10-16T01:55:07;100470.59;;;12.23;100.00
39265;BME280;42646;51.910;7.724;2022-10-16T01:57:39;100465.56;;;12.20;100.00
39265;BME280;42646;51.910;7.724;2022-10-16T02:00:10;100464.88;;;12.18;100.00
39265;BME280;42646;51.910;7.724;2022-10-16T02:02:42;100474.88;;;12.16;100.00
39265;BME280;42646;51.910;7.724;2022-10-16T02:05:16;100475.00;;;12.15;100.00
39265;BME280;42646;51.910;7.724;2022-10-16T02:07:47;100481.50;;;12.12;100.00
39265;BME280;42646;51.910;7.724;2022-10-16T02:10:15;100481.78;;;12.09;100.00
39265;BME280;42646;51.910;7.724;2022-10-16T02:12:47;100484.63;;;12.08;100.00
39265;BME280;42646;51.910;7.724;2022-10-16T02:15:17;100469.78;;;12.05;100.00
39265;BME280;42646;51.910;7.724;2022-10-16T02:17:45;100481.44;;;12.04;100.00
39265;BME280;42646;51.910;7.724;2022-10-16T02:20:13;100488.56;;;12.03;100.00
39265;BME280;42646;51.910;7.724;2022-10-16T02:22:44;100485.22;;;12.01;100.00
39265;BME280;42646;51.910;7.724;2022-10-16T02:25:17;100481.56;;;12.02;100.00
39265;BME280;42646;51.910;7.724;2022-10-16T02:27:54;100467.22;;;12.03;100.00
39265;BME280;42646;51.910;7.724;2022-10-16T02:30:25;100483.22;;;12.03;100.00
39265;BME280;42646;51.910;7.724;2022-10-16T02:32:56;100487.72;;;12.03;100.00
39265;BME280;42646;51.910;7.724;2022-10-16T02:35:27;100485.91;;;12.03;100.00
39265;BME280;42646;51.910;7.724;2022-10-16T02:37:55;100488.56;;;12.03;100.00
39265;BME280;42646;51.910;7.724;2022-10-16T02:40:24;100485.78;;;12.05;100.00
39265;BME280;42646;51.910;7.724;2022-10-16T02:42:54;100494.75;;;12.04;100.00
39265;BME280;42646;51.910;7.724;2022-10-16T02:45:23;100494.59;;;12.06;100.00
39265;BME280;42646;51.910;7.724;2022-10-16T02:47:51;100500.09;;;12.04;100.00
39265;BME280;42646;51.910;7.724;2022-10-16T02:50:18;100501.91;;;12.03;100.00
39265;BME280;42646;51.910;7.724;2022-10-16T02:52:46;100503.72;;;12.03;100.00
39265;BME280;42646;51.910;7.724;2022-10-16T02:55:14;100501.91;;;12.03;100.00
39265;BME280;42646;51.910;7.724;2022-10-16T02:57:42;100504.72;;;12.02;100.00
39265;BME280;42646;51.910;7.724;2022-10-16T03:00:13;100500.38;;;12.01;100.00
39265;BME280;42646;51.910;7.724;2022-10-16T03:02:41;100502.06;;;12.02;100.00
39265;BME280;42646;51.910;7.724;2022-10-16T03:05:09;100502.75;;;12.04;100.00
39265;BME280;42646;51.910;7.724;2022-10-16T03:07:37;100498.38;;;12.03;100.00
39265;BME280;42646;51.910;7.724;2022-10-16T03:10:05;100492.09;;;12.04;100.00
39265;BME280;42646;51.910;7.724;2022-10-16T03:12:33;100484.63;;;12.08;100.00
39265;BME280;42646;51.910;7.724;2022-10-16T03:15:01;100486.44;;;12.07;100.00
39265;BME280;42646;51.910;7.724;2022-10-16T03:17:31;100491.78;;;12.07;100.00
39265;BME280;42646;51.910;7.724;2022-10-16T03:19:59;100480.81;;;12.10;100.00
39265;BME280;42646;51.910;7.724;2022-10-16T03:22:27;100494.16;;;12.10;100.00
39265;BME280;42646;51.910;7.724;2022-10-16T03:24:55;100506.50;;;12.11;100.00
39265;BME280;42646;51.910;7.724;2022-10-16T03:27:22;100500.16;;;12.12;100.00
39265;BME280;42646;51.910;7.724;2022-10-16T03:29:51;100508.84;;;12.14;100.00
39265;BME280;42646;51.910;7.724;2022-10-16T03:32:18;100505.03;;;12.17;100.00
39265;BME280;42646;51.910;7.724;2022-10-16T03:34:47;100505.72;;;12.19;100.00
39265;BME280;42646;51.910;7.724;2022-10-16T03:37:15;100496.44;;;12.23;100.00
39265;BME280;42646;51.910;7.724;2022-10-16T03:39:43;100498.09;;;12.24;100.00
39265;BME280;42646;51.910;7.724;2022-10-16T03:42:10;100495.81;;;12.29;100.00
39265;BME280;42646;51.910;7.724;2022-10-16T03:44:39;100491.16;;;12.31;100.00
39265;BME280;42646;51.910;7.724;2022-10-16T03:47:06;100495.38;;;12.34;100.00
39265;BME280;42646;51.910;7.724;2022-10-16T03:49:34;100500.22;;;12.38;100.00
39265;BME280;42646;51.910;7.724;2022-10-16T03:52:03;100494.06;;;12.38;100.00
39265;BME280;42646;51.910;7.724;2022-10-16T03:54:31;100493.06;;;12.39;100.00
39265;BME280;42646;51.910;7.724;2022-10-16T03:56:59;100486.59;;;12.41;100.00
39265;BME280;42646;51.910;7.724;2022-10-16T03:59:26;100483.91;;;12.41;100.00
39265;BME280;42646;51.910;7.724;2022-10-16T04:01:54;100496.94;;;12.44;100.00
39265;BME280;42646;51.910;7.724;2022-10-16T04:04:22;100496.94;;;12.44;100.00
39265;BME280;42646;51.910;7.724;2022-10-16T04:06:50;100499.47;;;12.46;100.00
39265;BME280;42646;51.910;7.724;2022-10-16T04:09:20;100494.44;;;12.43;100.00
39265;BME280;42646;51.910;7.724;2022-10-16T04:11:47;100502.44;;;12.43;100.00
39265;BME280;42646;51.910;7.724;2022-10-16T04:14:15;100517.59;;;12.42;100.00
39265;BME280;42646;51.910;7.724;2022-10-16T04:16:42;100507.09;;;12.41;100.00
39265;BME280;42646;51.910;7.724;2022-10-16T04:19:11;100509.59;;;12.42;100.00
39265;BME280;42646;51.910;7.724;2022-10-16T04:21:38;100506.25;;;12.40;100.00
39265;BME280;42646;51.910;7.724;2022-10-16T04:24:06;100525.94;;;12.39;100.00
39265;BME280;42646;51.910;7.724;2022-10-16T04:26:35;100524.22;;;12.38;100.00
39265;BME280;42646;51.910;7.724;2022-10-16T04:29:03;100538.41;;;12.39;100.00
39265;BME280;42646;51.910;7.724;2022-10-16T04:31:31;100525.06;;;12.39;100.00
39265;BME280;42646;51.910;7.724;2022-10-16T04:33:59;100519.59;;;12.40;100.00
39265;BME280;42646;51.910;7.724;2022-10-16T04:36:26;100524.94;;;12.40;100.00
39265;BME280;42646;51.910;7.724;2022-10-16T04:38:54;100528.59;;;12.39;100.00
39265;BME280;42646;51.910;7.724;2022-10-16T04:41:22;100541.06;;;12.39;100.00
39265;BME280;42646;51.910;7.724;2022-10-16T04:43:51;100545.44;;;12.40;100.00
39265;BME280;42646;51.910;7.724;2022-10-16T04:46:19;100544.44;;;12.41;100.00
39265;BME280;42646;51.910;7.724;2022-10-16T04:48:47;100552.44;;;12.41;100.00
39265;BME280;42646;51.910;7.724;2022-10-16T04:51:14;100548.13;;;12.40;100.00
39265;BME280;42646;51.910;7.724;2022-10-16T04:53:42;100550.91;;;12.38;100.00
39265;BME280;42646;51.910;7.724;2022-10-16T04:56:10;100546.41;;;12.39;100.00
39265;BME280;42646;51.910;7.724;2022-10-16T04:58:37;100549.06;;;12.39;100.00
39265;BME280;42646;51.910;7.724;2022-10-16T05:01:06;100545.44;;;12.40;100.00
39265;BME280;42646;51.910;7.724;2022-10-16T05:03:34;100543.75;;;12.39;100.00
39265;BME280;42646;51.910;7.724;2022-10-16T05:06:01;100550.91;;;12.38;100.00
39265;BME280;42646;51.910;7.724;2022-10-16T05:08:30;100556.25;;;12.38;100.00
39265;BME280;42646;51.910;7.724;2022-10-16T05:10:58;100556.25;;;12.38;100.00
39265;BME280;42646;51.910;7.724;2022-10-16T05:13:26;100561.56;;;12.38;100.00
39265;BME280;42646;51.910;7.724;2022-10-16T05:15:53;100562.41;;;12.39;100.00
39265;BME280;42646;51.910;7.724;2022-10-16T05:18:22;100555.41;;;12.38;100.00
39265;BME280;42646;51.910;7.724;2022-10-16T05:20:50;100558.78;;;12.40;100.00
39265;BME280;42646;51.910;7.724;2022-10-16T05:23:18;100562.28;;;12.40;100.00
39265;BME280;42646;51.910;7.724;2022-10-16T05:25:52;100568.47;;;12.41;100.00
39265;BME280;42646;51.910;7.724;2022-10-16T05:28:20;100570.28;;;12.40;100.00
39265;BME280;42646;51.910;7.724;2022-10-16T05:30:48;100576.47;;;12.41;100.00
39265;BME280;42646;51.910;7.724;2022-10-16T05:33:16;100584.47;;;12.41;100.00
39265;BME280;42646;51.910;7.724;2022-10-16T05:35:45;100579.28;;;12.39;100.00
39265;BME280;42646;51.910;7.724;2022-10-16T05:38:13;100573.94;;;12.39;100.00
39265;BME280;42646;51.910;7.724;2022-10-16T05:40:41;100587.28;;;12.39;100.00
39265;BME280;42646;51.910;7.724;2022-10-16T05:43:09;100595.28;;;12.39;100.00
39265;BME280;42646;51.910;7.724;2022-10-16T05:45:36;100592.63;;;12.39;100.00
39265;BME280;42646;51.910;7.724;2022-10-16T05:48:04;100594.31;;;12.40;100.00
39265;BME280;42646;51.910;7.724;2022-10-16T05:50:32;100593.47;;;12.40;100.00
39265;BME280;42646;51.910;7.724;2022-10-16T05:53:01;100595.28;;;12.39;100.00
39265;BME280;42646;51.910;7.724;2022-10-16T05:55:29;100598.94;;;12.38;100.00
39265;BME280;42646;51.910;7.724;2022-10-16T05:57:57;100603.31;;;12.39;100.00
39265;BME280;42646;51.910;7.724;2022-10-16T06:00:24;100614.94;;;12.38;100.00
39265;BME280;42646;51.910;7.724;2022-10-16T06:02:53;100614.94;;;12.38;100.00
39265;BME280;42646;51.910;7.724;2022-10-16T06:05:21;100614.81;;;12.40;100.00
39265;BME280;42646;51.910;7.724;2022-10-16T06:07:48;100607.63;;;12.40;100.00
39265;BME280;42646;51.910;7.724;2022-10-16T06:10:17;100609.31;;;12.41;100.00
39265;BME280;42646;51.910;7.724;2022-10-16T06:12:45;100613.81;;;12.41;100.00
39265;BME280;42646;51.910;7.724;2022-10-16T06:15:12;100620.66;;;12.43;100.00
39265;BME280;42646;51.910;7.724;2022-10-16T06:17:40;100615.03;;;12.46;100.00
39265;BME280;42646;51.910;7.724;2022-10-16T06:20:08;100629.38;;;12.45;100.00
39265;BME280;42646;51.910;7.724;2022-10-16T06:22:36;100635.53;;;12.46;100.00
39265;BME280;42646;51.910;7.724;2022-10-16T06:25:04;100634.56;;;12.47;100.00
39265;BME280;42646;51.910;7.724;2022-10-16T06:27:33;100648.72;;;12.47;100.00
39265;BME280;42646;51.910;7.724;2022-10-16T06:30:01;100660.25;;;12.48;100.00
39265;BME280;42646;51.910;7.724;2022-10-16T06:32:30;100653.06;;;12.48;100.00
39265;BME280;42646;51.910;7.724;2022-10-16T06:34:57;100660.91;;;12.50;100.00
39265;BME280;42646;51.910;7.724;2022-10-16T06:37:26;100666.25;;;12.50;100.00
39265;BME280;42646;51.910;7.724;2022-10-16T06:39:54;100670.59;;;12.51;100.00
39265;BME280;42646;51.910;7.724;2022-10-16T06:42:22;100677.63;;;12.52;100.00
39265;BME280;42646;51.910;7.724;2022-10-16T06:44:51;100683.81;;;12.52;100.00
39265;BME280;42646;51.910;7.724;2022-10-16T06:47:19;100688.00;;;12.55;100.00
39265;BME280;42646;51.910;7.724;2022-10-16T06:49:47;100686.88;;;12.57;100.00
39265;BME280;42646;51.910;7.724;2022-10-16T06:52:19;100688.53;;;12.59;100.00
39265;BME280;42646;51.910;7.724;2022-10-16T06:54:47;100687.41;;;12.61;100.00
39265;BME280;42646;51.910;7.724;2022-10-16T06:57:15;100695.41;;;12.61;100.00
39265;BME280;42646;51.910;7.724;2022-10-16T06:59:42;100697.78;;;12.64;100.00
39265;BME280;42646;51.910;7.724;2022-10-16T07:02:14;100699.28;;;12.67;100.00
39265;BME280;42646;51.910;7.724;2022-10-16T07:04:41;100698.84;;;12.71;100.00
39265;BME280;42646;51.910;7.724;2022-10-16T07:07:09;100698.25;;;12.77;100.00
39265;BME280;42646;51.910;7.724;2022-10-16T07:09:37;100707.31;;;12.84;100.00
39265;BME280;42646;51.910;7.724;2022-10-16T07:12:04;100708.38;;;12.92;100.00
39265;BME280;42646;51.910;7.724;2022-10-16T07:14:32;100712.28;;;12.97;100.00
39265;BME280;42646;51.910;7.724;2022-10-16T07:16:59;100720.69;;;13.02;100.00
39265;BME280;42646;51.910;7.724;2022-10-16T07:19:28;100727.56;;;13.05;100.00
39265;BME280;42646;51.910;7.724;2022-10-16T07:22:00;100721.91;;;13.08;100.00
39265;BME280;42646;51.910;7.724;2022-10-16T07:24:27;100736.81;;;13.10;100.00
39265;BME280;42646;51.910;7.724;2022-10-16T07:26:55;100747.31;;;13.12;100.00
39265;BME280;42646;51.910;7.724;2022-10-16T07:29:23;100758.69;;;13.14;100.00
39265;BME280;42646;51.910;7.724;2022-10-16T07:31:50;100761.06;;;13.17;100.00
39265;BME280;42646;51.910;7.724;2022-10-16T07:34:19;100775.09;;;13.19;100.00
39265;BME280;42646;51.910;7.724;2022-10-16T07:36:49;100765.25;;;13.20;100.00
39265;BME280;42646;51.910;7.724;2022-10-16T07:39:18;100779.44;;;13.20;100.00
39265;BME280;42646;51.910;7.724;2022-10-16T07:41:45;100776.53;;;13.23;100.00
39265;BME280;42646;51.910;7.724;2022-10-16T07:44:13;100779.88;;;13.25;100.00
39265;BME280;42646;51.910;7.724;2022-10-16T07:46:41;100784.75;;;13.30;100.00
39265;BME280;42646;51.910;7.724;2022-10-16T07:49:08;100779.25;;;13.31;100.00
39265;BME280;42646;51.910;7.724;2022-10-16T07:51:36;100779.63;;;13.36;100.00
39265;BME280;42646;51.910;7.724;2022-10-16T07:54:07;100780.31;;;13.39;100.00
39265;BME280;42646;51.910;7.724;2022-10-16T07:56:35;100783.53;;;13.42;100.00
39265;BME280;42646;51.910;7.724;2022-10-16T07:59:08;100783.44;;;13.52;100.00
39265;BME280;42646;51.910;7.724;2022-10-16T08:01:35;100788.19;;;13.58;100.00
39265;BME280;42646;51.910;7.724;2022-10-16T08:04:05;100792.22;;;13.62;100.00
39265;BME280;42646;51.910;7.724;2022-10-16T08:06:35;100793.97;;;13.71;100.00
39265;BME280;42646;51.910;7.724;2022-10-16T08:09:03;100809.59;;;13.84;100.00
39265;BME280;42646;51.910;7.724;2022-10-16T08:11:33;100813.38;;;13.99;100.00
39265;BME280;42646;51.910;7.724;2022-10-16T08:14:01;100806.09;;;14.09;100.00
39265;BME280;42646;51.910;7.724;2022-10-16T08:16:28;100818.53;;;14.19;100.00
39265;BME280;42646;51.910;7.724;2022-10-16T08:18:56;100827.78;;;14.24;100.00
39265;BME280;42646;51.910;7.724;2022-10-16T08:21:24;100830.66;;;14.31;100.00
39265;BME280;42646;51.910;7.724;2022-10-16T08:23:52;100831.16;;;14.34;100.00
39265;BME280;42646;51.910;7.724;2022-10-16T08:26:24;100831.53;;;14.39;100.00
39265;BME280;42646;51.910;7.724;2022-10-16T08:28:54;100829.38;;;14.43;100.00
39265;BME280;42646;51.910;7.724;2022-10-16T08:31:22;100830.28;;;14.52;100.00
39265;BME280;42646;51.910;7.724;2022-10-16T08:33:50;100829.97;;;14.55;100.00
39265;BME280;42646;51.910;7.724;2022-10-16T08:36:19;100837.88;;;14.64;100.00
39265;BME280;42646;51.910;7.724;2022-10-16T08:38:48;100837.25;;;14.71;100.00
39265;BME280;42646;51.910;7.724;2022-10-16T08:44:34;100850.75;;;14.95;100.00
39265;BME280;42646;51.910;7.724;2022-10-16T08:47:13;100844.59;;;15.11;100.00
39265;BME280;42646;51.910;7.724;2022-10-16T08:49:50;100846.47;;;15.27;100.00
39265;BME280;42646;51.910;7.724;2022-10-16T08:52:22;100854.22;;;15.38;100.00
39265;BME280;42646;51.910;7.724;2022-10-16T08:54:53;100857.06;;;15.44;100.00
39265;BME280;42646;51.910;7.724;2022-10-16T08:57:24;100858.25;;;15.50;100.00
39265;BME280;42646;51.910;7.724;2022-10-16T08:59:57;100865.28;;;15.51;100.00
39265;BME280;42646;51.910;7.724;2022-10-16T09:02:31;100865.13;;;15.53;100.00
39265;BME280;42646;51.910;7.724;2022-10-16T09:05:14;100863.47;;;15.60;100.00
39265;BME280;42646;51.910;7.724;2022-10-16T09:07:49;100869.19;;;15.65;100.00
39265;BME280;42646;51.910;7.724;2022-10-16T09:10:31;100878.25;;;15.64;100.00
39265;BME280;42646;51.910;7.724;2022-10-16T09:13:11;100876.25;;;15.66;100.00
39265;BME280;42646;51.910;7.724;2022-10-16T09:15:47;100884.13;;;15.75;100.00
39265;BME280;42646;51.910;7.724;2022-10-16T09:18:24;100892.16;;;15.75;100.00
39265;BME280;42646;51.910;7.724;2022-10-16T09:21:03;100886.81;;;15.84;100.00
39265;BME280;42646;51.910;7.724;2022-10-16T09:23:34;100891.53;;;15.90;100.00
39265;BME280;42646;51.910;7.724;2022-10-16T09:26:05;100889.81;;;15.89;100.00
39265;BME280;42646;51.910;7.724;2022-10-16T09:28:33;100895.53;;;15.94;100.00
39265;BME280;42646;51.910;7.724;2022-10-16T09:31:02;100890.19;;;16.02;100.00
39265;BME280;42646;51.910;7.724;2022-10-16T09:33:34;100896.56;;;16.09;100.00
39265;BME280;42646;51.910;7.724;2022-10-16T09:36:04;100896.06;;;16.14;100.00
39265;BME280;42646;51.910;7.724;2022-10-16T09:38:34;100900.22;;;16.16;100.00
39265;BME280;42646;51.910;7.724;2022-10-16T09:41:14;100894.53;;;16.19;100.00
39265;BME280;42646;51.910;7.724;2022-10-16T09:43:47;100893.84;;;16.17;100.00
39265;BME280;42646;51.910;7.724;2022-10-16T09:46:26;100905.94;;;16.21;100.00
39265;BME280;42646;51.910;7.724;2022-10-16T09:48:56;100902.06;;;16.24;100.00
39265;BME280;42646;51.910;7.724;2022-10-16T09:51:27;100901.22;;;16.23;99.90
39265;BME280;42646;51.910;7.724;2022-10-16T09:53:56;100907.94;;;16.27;99.58
39265;BME280;42646;51.910;7.724;2022-10-16T09:56:26;100913.00;;;16.31;99.57
39265;BME280;42646;51.910;7.724;2022-10-16T09:58:55;100910.78;;;16.34;99.60
39265;BME280;42646;51.910;7.724;2022-10-16T10:01:29;100914.13;;;16.52;96.80
39265;BME280;42646;51.910;7.724;2022-10-16T10:03:58;100907.72;;;16.53;95.63
39265;BME280;42646;51.910;7.724;2022-10-16T10:06:30;100919.31;;;16.62;95.61
39265;BME280;42646;51.910;7.724;2022-10-16T10:09:04;100910.25;;;16.71;95.56
39265;BME280;42646;51.910;7.724;2022-10-16T10:11:40;100913.06;;;16.78;94.46
39265;BME280;42646;51.910;7.724;2022-10-16T10:14:17;100921.47;;;16.83;94.98
39265;BME280;42646;51.910;7.724;2022-10-16T10:16:47;100925.66;;;16.86;93.67
39265;BME280;42646;51.910;7.724;2022-10-16T10:19:17;100933.03;;;16.83;92.71
39265;BME280;42646;51.910;7.724;2022-10-16T10:21:45;100930.03;;;16.87;92.27
39265;BME280;42646;51.910;7.724;2022-10-16T10:24:14;100935.41;;;16.87;90.76
39265;BME280;42646;51.910;7.724;2022-10-16T10:26:49;100935.03;;;16.90;87.32
39265;BME280;42646;51.910;7.724;2022-10-16T10:29:25;100924.66;;;16.87;87.15
39265;BME280;42646;51.910;7.724;2022-10-16T10:32:04;100937.56;;;16.83;89.40
39265;BME280;42646;51.910;7.724;2022-10-16T10:34:46;100933.72;;;16.86;90.72
39265;BME280;42646;51.910;7.724;2022-10-16T10:37:51;100938.06;;;16.95;90.54
39265;BME280;42646;51.910;7.724;2022-10-16T10:40:32;100939.91;;;17.02;90.34
39265;BME280;42646;51.910;7.724;2022-10-16T10:43:13;100945.56;;;17.07;88.45
39265;BME280;42646;51.910;7.724;2022-10-16T10:45:47;100937.34;;;17.09;88.40
39265;BME280;42646;51.910;7.724;2022-10-16T10:48:39;100938.19;;;17.09;87.68
39265;BME280;42646;51.910;7.724;2022-10-16T10:51:13;100946.09;;;17.03;86.70
39265;BME280;42646;51.910;7.724;2022-10-16T10:53:50;100945.41;;;17.01;86.78
39265;BME280;42646;51.910;7.724;2022-10-16T10:56:40;100937.72;;;16.98;86.99
39265;BME280;42646;51.910;7.724;2022-10-16T10:59:23;100952.31;;;16.95;87.57
39265;BME280;42646;51.910;7.724;2022-10-16T11:01:56;100953.53;;;16.93;88.83
39265;BME280;42646;51.910;7.724;2022-10-16T11:04:54;100952.03;;;16.90;88.63
39265;BME280;42646;51.910;7.724;2022-10-16T11:07:28;100956.53;;;16.90;87.80
39265;BME280;42646;51.910;7.724;2022-10-16T11:10:02;100958.56;;;16.88;87.38
39265;BME280;42646;51.910;7.724;2022-10-16T11:12:35;100954.38;;;16.85;87.12
39265;BME280;42646;51.910;7.724;2022-10-16T11:15:10;100952.03;;;16.82;86.54
39265;BME280;42646;51.910;7.724;2022-10-16T11:17:42;100952.38;;;16.79;86.74
39265;BME280;42646;51.910;7.724;2022-10-16T11:20:16;100954.38;;;16.77;87.21
39265;BME280;42646;51.910;7.724;2022-10-16T11:22:48;100964.66;;;16.73;87.89
39265;BME280;42646;51.910;7.724;2022-10-16T11:25:20;100966.50;;;16.73;87.62
39265;BME280;42646;51.910;7.724;2022-10-16T11:27:50;100967.00;;;16.76;87.25
39265;BME280;42646;51.910;7.724;2022-10-16T11:30:21;100966.66;;;16.71;86.33
39265;BME280;42646;51.910;7.724;2022-10-16T11:32:56;100956.06;;;16.70;86.99
39265;BME280;42646;51.910;7.724;2022-10-16T11:35:37;100957.63;;;16.72;88.32
39265;BME280;42646;51.910;7.724;2022-10-16T11:38:10;100966.81;;;16.78;87.44
39265;BME280;42646;51.910;7.724;2022-10-16T11:40:42;100966.81;;;16.78;87.29
39265;BME280;42646;51.910;7.724;2022-10-16T11:43:15;100966.81;;;16.78;87.58
39265;BME280;42646;51.910;7.724;2022-10-16T11:45:46;100969.16;;;16.81;87.26
39265;BME280;42646;51.910;7.724;2022-10-16T11:48:23;100973.53;;;16.82;86.57
39265;BME280;42646;51.910;7.724;2022-10-16T11:50:54;100971.69;;;16.82;85.85
39265;BME280;42646;51.910;7.724;2022-10-16T11:53:35;100965.63;;;16.89;84.91
39265;BME280;42646;51.910;7.724;2022-10-16T11:56:06;100969.31;;;16.88;84.11
39265;BME280;42646;51.910;7.724;2022-10-16T11:58:37;100974.88;;;16.86;85.19
39265;BME280;42646;51.910;7.724;2022-10-16T12:01:17;100983.78;;;16.87;86.14
39265;BME280;42646;51.910;7.724;2022-10-16T12:03:54;100974.50;;;16.89;86.00
39265;BME280;42646;51.910;7.724;2022-10-16T12:06:31;100972.19;;;16.86;85.93
39265;BME280;42646;51.910;7.724;2022-10-16T12:09:01;100973.03;;;16.87;85.89
39265;BME280;42646;51.910;7.724;2022-10-16T12:11:36;100971.16;;;16.87;86.10
39265;BME280;42646;51.910;7.724;2022-10-16T12:14:17;100975.53;;;16.88;85.67
39265;BME280;42646;51.910;7.724;2022-10-16T12:16:54;100983.41;;;16.90;86.32
39265;BME280;42646;51.910;7.724;2022-10-16T12:19:23;100981.41;;;16.92;86.60
39265;BME280;42646;51.910;7.724;2022-10-16T12:21:55;100978.38;;;16.95;86.02
39265;BME280;42646;51.910;7.724;2022-10-16T12:24:33;100979.72;;;16.99;85.71
39265;BME280;42646;51.910;7.724;2022-10-16T12:27:02;100981.38;;;17.00;85.37
39265;BME280;42646;51.910;7.724;2022-10-16T12:29:36;100985.41;;;17.04;84.59
39265;BME280;42646;51.910;7.724;2022-10-16T12:32:22;100980.50;;;17.16;83.63
39265;BME280;42646;51.910;7.724;2022-10-16T12:35:18;100985.66;;;17.25;82.76
39265;BME280;42646;51.910;7.724;2022-10-16T12:37:48;100992.03;;;17.32;82.64
39265;BME280;42646;51.910;7.724;2022-10-16T12:40:25;100996.72;;;17.39;81.91
39265;BME280;42646;51.910;7.724;2022-10-16T12:42:54;100994.88;;;17.39;81.84
39265;BME280;42646;51.910;7.724;2022-10-16T12:45:25;100997.19;;;17.42;81.96
39265;BME280;42646;51.910;7.724;2022-10-16T12:47:54;101004.25;;;17.43;81.80
39265;BME280;42646;51.910;7.724;2022-10-16T12:50:32;101007.63;;;17.45;82.29
39265;BME280;42646;51.910;7.724;2022-10-16T12:53:03;101013.84;;;17.46;81.89
39265;BME280;42646;51.910;7.724;2022-10-16T12:55:35;101007.25;;;17.48;81.86
39265;BME280;42646;51.910;7.724;2022-10-16T12:58:28;101014.16;;;17.51;81.09
39265;BME280;42646;51.910;7.724;2022-10-16T13:01:07;101013.31;;;17.50;80.93
39265;BME280;42646;51.910;7.724;2022-10-16T13:03:58;101012.31;;;17.51;81.21
39265;BME280;42646;51.910;7.724;2022-10-16T13:06:36;101009.44;;;17.53;81.56